sensor_id;sensor_type;location;lat;lon;timestamp;P1;durP1;ratioP1;P2;durP2;ratioP2
31906;SDS011;18455;50.858;13.662;2023-07-31T00:01:31;3.90;;;1.67;;
31906;SDS011;18455;50.858;13.662;2023-07-31T00:06:31;3.08;;;1.80;;
31906;SDS011;18455;50.858;13.662;2023-07-31T00:11:31;2.95;;;1.35;;
31906;SDS011;18455;50.858;13.662;2023-07-31T00:16:32;3.53;;;1.70;;
31906;SDS011;18455;50.858;13.662;2023-07-31T00:21:32;5.88;;;1.73;;
31906;SDS011;18455;50.858;13.662;2023-07-31T00:26:32;8.18;;;1.58;;
31906;SDS011;18455;50.858;13.662;2023-07-31T00:31:33;2.65;;;1.70;;
31906;SDS011;18455;50.858;13.662;2023-07-31T00:36:33;6.30;;;1.98;;
31906;SDS011;18455;50.858;13.662;2023-07-31T00:41:33;5.20;;;1.73;;
31906;SDS011;18455;50.858;13.662;2023-07-31T00:46:35;8.07;;;2.15;;
31906;SDS011;18455;50.858;13.662;2023-07-31T00:51:36;8.43;;;2.00;;
31906;SDS011;18455;50.858;13.662;2023-07-31T00:56:37;3.40;;;1.83;;
31906;SDS011;18455;50.858;13.662;2023-07-31T01:01:37;8.38;;;1.75;;
31906;SDS011;18455;50.858;13.662;2023-07-31T01:12:09;3.63;;;2.00;;
31906;SDS011;18455;50.858;13.662;2023-07-31T01:17:16;2.17;;;1.58;;
31906;SDS011;18455;50.858;13.662;2023-07-31T01:22:28;5.57;;;1.65;;
31906;SDS011;18455;50.858;13.662;2023-07-31T01:27:39;4.60;;;1.65;;
31906;SDS011;18455;50.858;13.662;2023-07-31T01:32:44;5.88;;;1.88;;
31906;SDS011;18455;50.858;13.662;2023-07-31T01:37:46;5.25;;;1.60;;
31906;SDS011;18455;50.858;13.662;2023-07-31T01:42:47;5.75;;;1.63;;
31906;SDS011;18455;50.858;13.662;2023-07-31T01:47:48;3.83;;;1.55;;
31906;SDS011;18455;50.858;13.662;2023-07-31T01:52:49;7.55;;;2.15;;
31906;SDS011;18455;50.858;13.662;2023-07-31T01:57:49;7.07;;;2.33;;
31906;SDS011;18455;50.858;13.662;2023-07-31T02:02:49;5.80;;;1.75;;
31906;SDS011;18455;50.858;13.662;2023-07-31T02:07:51;6.53;;;1.98;;
31906;SDS011;18455;50.858;13.662;2023-07-31T02:12:51;5.30;;;1.60;;
31906;SDS011;18455;50.858;13.662;2023-07-31T02:17:52;4.38;;;1.70;;
31906;SDS011;18455;50.858;13.662;2023-07-31T02:22:52;7.85;;;2.10;;
31906;SDS011;18455;50.858;13.662;2023-07-31T02:27:53;4.80;;;1.88;;
31906;SDS011;18455;50.858;13.662;2023-07-31T02:32:53;5.35;;;1.60;;
31906;SDS011;18455;50.858;13.662;2023-07-31T02:37:54;5.85;;;1.60;;
31906;SDS011;18455;50.858;13.662;2023-07-31T02:42:54;7.15;;;2.13;;
31906;SDS011;18455;50.858;13.662;2023-07-31T02:47:55;2.75;;;1.58;;
31906;SDS011;18455;50.858;13.662;2023-07-31T02:52:55;5.78;;;2.20;;
31906;SDS011;18455;50.858;13.662;2023-07-31T02:57:55;5.72;;;1.85;;
31906;SDS011;18455;50.858;13.662;2023-07-31T03:02:56;7.13;;;1.70;;
31906;SDS011;18455;50.858;13.662;2023-07-31T03:07:56;6.28;;;1.98;;
31906;SDS011;18455;50.858;13.662;2023-07-31T03:12:57;7.70;;;1.75;;
31906;SDS011;18455;50.858;13.662;2023-07-31T03:17:58;4.75;;;1.73;;
31906;SDS011;18455;50.858;13.662;2023-07-31T03:22:58;6.63;;;1.80;;
31906;SDS011;18455;50.858;13.662;2023-07-31T03:27:58;4.38;;;1.63;;
31906;SDS011;18455;50.858;13.662;2023-07-31T03:32:59;6.18;;;1.98;;
31906;SDS011;18455;50.858;13.662;2023-07-31T03:38:00;6.40;;;2.10;;
31906;SDS011;18455;50.858;13.662;2023-07-31T03:43:01;4.57;;;2.05;;
31906;SDS011;18455;50.858;13.662;2023-07-31T03:48:01;8.38;;;2.58;;
31906;SDS011;18455;50.858;13.662;2023-07-31T03:53:02;5.38;;;2.03;;
31906;SDS011;18455;50.858;13.662;2023-07-31T03:58:02;6.43;;;2.17;;
31906;SDS011;18455;50.858;13.662;2023-07-31T04:03:02;6.20;;;2.58;;
31906;SDS011;18455;50.858;13.662;2023-07-31T04:08:03;5.20;;;2.47;;
31906;SDS011;18455;50.858;13.662;2023-07-31T04:13:03;5.22;;;2.38;;
31906;SDS011;18455;50.858;13.662;2023-07-31T04:18:04;4.13;;;2.53;;
31906;SDS011;18455;50.858;13.662;2023-07-31T04:23:05;7.78;;;3.00;;
31906;SDS011;18455;50.858;13.662;2023-07-31T04:28:06;7.40;;;2.90;;
31906;SDS011;18455;50.858;13.662;2023-07-31T04:33:07;4.57;;;2.70;;
31906;SDS011;18455;50.858;13.662;2023-07-31T04:38:08;5.03;;;3.00;;
31906;SDS011;18455;50.858;13.662;2023-07-31T04:43:08;7.97;;;2.80;;
31906;SDS011;18455;50.858;13.662;2023-07-31T04:48:08;4.18;;;2.42;;
31906;SDS011;18455;50.858;13.662;2023-07-31T04:53:09;7.85;;;3.05;;
31906;SDS011;18455;50.858;13.662;2023-07-31T04:58:09;5.25;;;2.60;;
31906;SDS011;18455;50.858;13.662;2023-07-31T05:03:09;4.22;;;1.90;;
31906;SDS011;18455;50.858;13.662;2023-07-31T05:08:11;6.43;;;2.70;;
31906;SDS011;18455;50.858;13.662;2023-07-31T05:13:12;3.83;;;1.85;;
31906;SDS011;18455;50.858;13.662;2023-07-31T05:18:12;6.30;;;3.00;;
31906;SDS011;18455;50.858;13.662;2023-07-31T05:23:12;5.38;;;2.50;;
31906;SDS011;18455;50.858;13.662;2023-07-31T05:28:13;11.43;;;2.40;;
31906;SDS011;18455;50.858;13.662;2023-07-31T05:33:13;6.63;;;2.35;;
31906;SDS011;18455;50.858;13.662;2023-07-31T05:38:13;5.38;;;2.45;;
31906;SDS011;18455;50.858;13.662;2023-07-31T05:43:14;5.38;;;1.95;;
31906;SDS011;18455;50.858;13.662;2023-07-31T05:48:14;5.63;;;1.92;;
31906;SDS011;18455;50.858;13.662;2023-07-31T05:53:15;6.65;;;2.65;;
31906;SDS011;18455;50.858;13.662;2023-07-31T05:58:15;5.65;;;2.53;;
31906;SDS011;18455;50.858;13.662;2023-07-31T06:03:15;7.28;;;2.55;;
31906;SDS011;18455;50.858;13.662;2023-07-31T06:08:16;5.85;;;2.97;;
31906;SDS011;18455;50.858;13.662;2023-07-31T06:13:16;4.68;;;2.00;;
31906;SDS011;18455;50.858;13.662;2023-07-31T06:18:16;5.43;;;2.17;;
31906;SDS011;18455;50.858;13.662;2023-07-31T06:23:17;5.28;;;2.20;;
31906;SDS011;18455;50.858;13.662;2023-07-31T06:28:18;5.22;;;2.33;;
31906;SDS011;18455;50.858;13.662;2023-07-31T06:33:19;6.65;;;2.53;;
31906;SDS011;18455;50.858;13.662;2023-07-31T06:38:21;7.38;;;2.42;;
31906;SDS011;18455;50.858;13.662;2023-07-31T06:43:22;6.00;;;2.58;;
31906;SDS011;18455;50.858;13.662;2023-07-31T06:48:23;3.97;;;1.88;;
31906;SDS011;18455;50.858;13.662;2023-07-31T06:53:23;9.20;;;2.83;;
31906;SDS011;18455;50.858;13.662;2023-07-31T06:58:23;4.32;;;2.70;;
31906;SDS011;18455;50.858;13.662;2023-07-31T07:03:24;5.05;;;2.45;;
31906;SDS011;18455;50.858;13.662;2023-07-31T07:08:24;5.95;;;2.55;;
31906;SDS011;18455;50.858;13.662;2023-07-31T07:13:25;4.97;;;2.17;;
31906;SDS011;18455;50.858;13.662;2023-07-31T07:18:25;4.72;;;2.53;;
31906;SDS011;18455;50.858;13.662;2023-07-31T07:23:25;4.53;;;2.17;;
31906;SDS011;18455;50.858;13.662;2023-07-31T07:28:26;3.90;;;2.17;;
31906;SDS011;18455;50.858;13.662;2023-07-31T07:33:28;4.55;;;1.80;;
31906;SDS011;18455;50.858;13.662;2023-07-31T07:38:28;7.63;;;2.22;;
31906;SDS011;18455;50.858;13.662;2023-07-31T07:43:29;6.95;;;2.47;;
31906;SDS011;18455;50.858;13.662;2023-07-31T07:48:29;5.80;;;2.60;;
31906;SDS011;18455;50.858;13.662;2023-07-31T07:53:29;5.10;;;2.65;;
31906;SDS011;18455;50.858;13.662;2023-07-31T07:58:30;4.47;;;2.40;;
31906;SDS011;18455;50.858;13.662;2023-07-31T08:03:30;4.28;;;2.28;;
31906;SDS011;18455;50.858;13.662;2023-07-31T08:08:31;5.43;;;2.60;;
31906;SDS011;18455;50.858;13.662;2023-07-31T08:13:31;7.78;;;2.08;;
31906;SDS011;18455;50.858;13.662;2023-07-31T08:18:31;8.48;;;2.30;;
31906;SDS011;18455;50.858;13.662;2023-07-31T08:23:32;6.68;;;2.53;;
31906;SDS011;18455;50.858;13.662;2023-07-31T08:28:33;3.75;;;2.10;;
31906;SDS011;18455;50.858;13.662;2023-07-31T08:33:33;6.25;;;2.42;;
31906;SDS011;18455;50.858;13.662;2023-07-31T08:38:33;6.32;;;2.80;;
31906;SDS011;18455;50.858;13.662;2023-07-31T08:43:34;4.95;;;2.90;;
31906;SDS011;18455;50.858;13.662;2023-07-31T08:48:35;9.60;;;3.13;;
31906;SDS011;18455;50.858;13.662;2023-07-31T08:53:35;4.93;;;2.55;;
31906;SDS011;18455;50.858;13.662;2023-07-31T08:58:36;5.68;;;2.75;;
31906;SDS011;18455;50.858;13.662;2023-07-31T09:03:37;4.75;;;2.50;;
31906;SDS011;18455;50.858;13.662;2023-07-31T09:08:39;7.57;;;3.05;;
31906;SDS011;18455;50.858;13.662;2023-07-31T09:13:42;5.10;;;2.75;;
31906;SDS011;18455;50.858;13.662;2023-07-31T09:18:53;5.32;;;2.35;;
31906;SDS011;18455;50.858;13.662;2023-07-31T09:23:54;4.53;;;2.50;;
31906;SDS011;18455;50.858;13.662;2023-07-31T09:28:54;4.47;;;2.20;;
31906;SDS011;18455;50.858;13.662;2023-07-31T09:33:55;4.90;;;2.45;;
31906;SDS011;18455;50.858;13.662;2023-07-31T09:38:57;5.93;;;2.85;;
31906;SDS011;18455;50.858;13.662;2023-07-31T09:44:02;4.72;;;2.90;;
31906;SDS011;18455;50.858;13.662;2023-07-31T09:49:06;5.10;;;2.30;;
31906;SDS011;18455;50.858;13.662;2023-07-31T09:54:13;4.57;;;2.30;;
31906;SDS011;18455;50.858;13.662;2023-07-31T09:59:16;5.95;;;2.17;;
31906;SDS011;18455;50.858;13.662;2023-07-31T10:04:17;7.90;;;2.55;;
31906;SDS011;18455;50.858;13.662;2023-07-31T10:09:20;7.05;;;2.55;;
31906;SDS011;18455;50.858;13.662;2023-07-31T10:14:21;4.78;;;2.17;;
31906;SDS011;18455;50.858;13.662;2023-07-31T10:19:22;1.52;;;1.42;;
31906;SDS011;18455;50.858;13.662;2023-07-31T10:24:23;5.38;;;2.50;;
31906;SDS011;18455;50.858;13.662;2023-07-31T10:29:23;5.75;;;2.83;;
31906;SDS011;18455;50.858;13.662;2023-07-31T10:34:24;5.50;;;2.20;;
31906;SDS011;18455;50.858;13.662;2023-07-31T10:39:37;3.28;;;1.92;;
31906;SDS011;18455;50.858;13.662;2023-07-31T10:44:43;6.22;;;2.50;;
31906;SDS011;18455;50.858;13.662;2023-07-31T10:49:47;5.22;;;2.10;;
31906;SDS011;18455;50.858;13.662;2023-07-31T10:54:59;2.08;;;1.70;;
31906;SDS011;18455;50.858;13.662;2023-07-31T11:00:28;1.67;;;1.55;;
31906;SDS011;18455;50.858;13.662;2023-07-31T11:05:45;2.70;;;1.67;;
31906;SDS011;18455;50.858;13.662;2023-07-31T11:11:07;1.50;;;1.40;;
31906;SDS011;18455;50.858;13.662;2023-07-31T11:16:09;2.45;;;1.65;;
31906;SDS011;18455;50.858;13.662;2023-07-31T11:21:20;1.98;;;1.60;;
31906;SDS011;18455;50.858;13.662;2023-07-31T11:26:22;3.15;;;2.00;;
31906;SDS011;18455;50.858;13.662;2023-07-31T11:31:24;5.10;;;2.20;;
31906;SDS011;18455;50.858;13.662;2023-07-31T11:36:24;2.47;;;1.70;;
31906;SDS011;18455;50.858;13.662;2023-07-31T11:41:24;3.75;;;1.98;;
31906;SDS011;18455;50.858;13.662;2023-07-31T11:46:25;2.40;;;1.40;;
31906;SDS011;18455;50.858;13.662;2023-07-31T11:51:25;3.00;;;1.88;;
31906;SDS011;18455;50.858;13.662;2023-07-31T11:56:26;1.48;;;1.30;;
31906;SDS011;18455;50.858;13.662;2023-07-31T12:01:27;3.13;;;1.30;;
31906;SDS011;18455;50.858;13.662;2023-07-31T12:06:37;3.00;;;1.38;;
31906;SDS011;18455;50.858;13.662;2023-07-31T12:11:44;3.40;;;1.52;;
31906;SDS011;18455;50.858;13.662;2023-07-31T12:16:45;3.58;;;1.73;;
31906;SDS011;18455;50.858;13.662;2023-07-31T12:21:46;6.28;;;1.90;;
31906;SDS011;18455;50.858;13.662;2023-07-31T12:26:46;4.07;;;2.08;;
31906;SDS011;18455;50.858;13.662;2023-07-31T12:31:48;5.93;;;1.65;;
31906;SDS011;18455;50.858;13.662;2023-07-31T12:36:48;3.72;;;1.80;;
31906;SDS011;18455;50.858;13.662;2023-07-31T12:41:49;4.43;;;2.08;;
31906;SDS011;18455;50.858;13.662;2023-07-31T12:46:49;3.28;;;2.17;;
31906;SDS011;18455;50.858;13.662;2023-07-31T12:51:50;5.38;;;1.98;;
31906;SDS011;18455;50.858;13.662;2023-07-31T12:56:50;2.25;;;1.95;;
31906;SDS011;18455;50.858;13.662;2023-07-31T13:01:51;4.20;;;1.90;;
31906;SDS011;18455;50.858;13.662;2023-07-31T13:06:51;2.58;;;2.13;;
31906;SDS011;18455;50.858;13.662;2023-07-31T13:11:51;4.28;;;2.30;;
31906;SDS011;18455;50.858;13.662;2023-07-31T13:16:52;4.40;;;1.88;;
31906;SDS011;18455;50.858;13.662;2023-07-31T13:21:52;3.35;;;1.77;;
31906;SDS011;18455;50.858;13.662;2023-07-31T13:26:52;2.20;;;1.70;;
31906;SDS011;18455;50.858;13.662;2023-07-31T13:31:53;2.97;;;1.85;;
31906;SDS011;18455;50.858;13.662;2023-07-31T13:36:54;4.40;;;1.65;;
31906;SDS011;18455;50.858;13.662;2023-07-31T13:41:55;3.45;;;2.00;;
31906;SDS011;18455;50.858;13.662;2023-07-31T13:46:56;4.65;;;2.35;;
31906;SDS011;18455;50.858;13.662;2023-07-31T13:51:56;3.30;;;2.13;;
31906;SDS011;18455;50.858;13.662;2023-07-31T13:56:57;3.85;;;1.90;;
31906;SDS011;18455;50.858;13.662;2023-07-31T14:01:57;2.80;;;2.05;;
31906;SDS011;18455;50.858;13.662;2023-07-31T14:06:58;6.40;;;1.83;;
31906;SDS011;18455;50.858;13.662;2023-07-31T14:11:58;2.67;;;2.08;;
31906;SDS011;18455;50.858;13.662;2023-07-31T14:16:58;4.20;;;2.03;;
31906;SDS011;18455;50.858;13.662;2023-07-31T14:21:59;4.32;;;2.28;;
31906;SDS011;18455;50.858;13.662;2023-07-31T14:27:00;4.45;;;2.58;;
31906;SDS011;18455;50.858;13.662;2023-07-31T14:32:00;5.80;;;2.50;;
31906;SDS011;18455;50.858;13.662;2023-07-31T14:37:01;3.15;;;2.45;;
31906;SDS011;18455;50.858;13.662;2023-07-31T14:42:02;4.18;;;2.08;;
31906;SDS011;18455;50.858;13.662;2023-07-31T14:47:02;2.97;;;2.17;;
31906;SDS011;18455;50.858;13.662;2023-07-31T14:52:03;2.13;;;1.83;;
31906;SDS011;18455;50.858;13.662;2023-07-31T14:57:03;5.03;;;2.17;;
31906;SDS011;18455;50.858;13.662;2023-07-31T15:02:04;6.60;;;2.78;;
31906;SDS011;18455;50.858;13.662;2023-07-31T15:07:04;3.42;;;1.88;;
31906;SDS011;18455;50.858;13.662;2023-07-31T15:12:05;4.30;;;2.55;;
31906;SDS011;18455;50.858;13.662;2023-07-31T15:17:06;3.55;;;2.10;;
31906;SDS011;18455;50.858;13.662;2023-07-31T15:22:06;3.72;;;2.28;;
31906;SDS011;18455;50.858;13.662;2023-07-31T15:27:07;4.35;;;2.53;;
31906;SDS011;18455;50.858;13.662;2023-07-31T15:32:08;2.92;;;1.63;;
31906;SDS011;18455;50.858;13.662;2023-07-31T15:37:08;5.15;;;2.08;;
31906;SDS011;18455;50.858;13.662;2023-07-31T15:42:09;3.95;;;2.63;;
31906;SDS011;18455;50.858;13.662;2023-07-31T15:47:09;5.32;;;2.22;;
31906;SDS011;18455;50.858;13.662;2023-07-31T15:52:10;4.45;;;2.53;;
31906;SDS011;18455;50.858;13.662;2023-07-31T15:57:10;4.53;;;2.45;;
31906;SDS011;18455;50.858;13.662;2023-07-31T16:02:11;4.10;;;2.28;;
31906;SDS011;18455;50.858;13.662;2023-07-31T16:07:11;4.53;;;2.45;;
31906;SDS011;18455;50.858;13.662;2023-07-31T16:12:12;3.00;;;2.17;;
31906;SDS011;18455;50.858;13.662;2023-07-31T16:17:12;4.30;;;2.42;;
31906;SDS011;18455;50.858;13.662;2023-07-31T16:22:13;3.80;;;2.33;;
31906;SDS011;18455;50.858;13.662;2023-07-31T16:27:13;6.13;;;2.83;;
31906;SDS011;18455;50.858;13.662;2023-07-31T16:32:13;3.80;;;2.25;;
31906;SDS011;18455;50.858;13.662;2023-07-31T16:37:14;4.03;;;2.40;;
31906;SDS011;18455;50.858;13.662;2023-07-31T16:42:14;3.50;;;2.20;;
31906;SDS011;18455;50.858;13.662;2023-07-31T16:47:15;4.65;;;2.80;;
31906;SDS011;18455;50.858;13.662;2023-07-31T16:52:16;3.45;;;2.53;;
31906;SDS011;18455;50.858;13.662;2023-07-31T16:57:17;3.90;;;2.60;;
31906;SDS011;18455;50.858;13.662;2023-07-31T17:02:17;4.78;;;2.38;;
31906;SDS011;18455;50.858;13.662;2023-07-31T17:07:18;5.15;;;2.58;;
31906;SDS011;18455;50.858;13.662;2023-07-31T17:12:20;5.25;;;3.60;;
31906;SDS011;18455;50.858;13.662;2023-07-31T17:17:21;5.53;;;2.97;;
31906;SDS011;18455;50.858;13.662;2023-07-31T17:22:23;5.20;;;2.65;;
31906;SDS011;18455;50.858;13.662;2023-07-31T17:27:23;6.82;;;2.65;;
31906;SDS011;18455;50.858;13.662;2023-07-31T17:32:24;3.10;;;2.35;;
31906;SDS011;18455;50.858;13.662;2023-07-31T17:37:26;3.60;;;2.42;;
31906;SDS011;18455;50.858;13.662;2023-07-31T17:42:26;7.47;;;2.80;;
31906;SDS011;18455;50.858;13.662;2023-07-31T17:47:27;6.90;;;2.33;;
31906;SDS011;18455;50.858;13.662;2023-07-31T17:52:27;4.50;;;2.63;;
31906;SDS011;18455;50.858;13.662;2023-07-31T17:57:27;3.95;;;2.47;;
31906;SDS011;18455;50.858;13.662;2023-07-31T18:02:28;4.25;;;2.47;;
31906;SDS011;18455;50.858;13.662;2023-07-31T18:07:29;3.88;;;2.38;;
31906;SDS011;18455;50.858;13.662;2023-07-31T18:12:29;5.60;;;2.80;;
31906;SDS011;18455;50.858;13.662;2023-07-31T18:17:30;4.03;;;2.50;;
31906;SDS011;18455;50.858;13.662;2023-07-31T18:22:30;7.55;;;2.95;;
31906;SDS011;18455;50.858;13.662;2023-07-31T18:27:30;5.57;;;2.63;;
31906;SDS011;18455;50.858;13.662;2023-07-31T18:32:31;3.55;;;2.65;;
31906;SDS011;18455;50.858;13.662;2023-07-31T18:37:31;5.32;;;2.70;;
31906;SDS011;18455;50.858;13.662;2023-07-31T18:42:31;5.50;;;2.95;;
31906;SDS011;18455;50.858;13.662;2023-07-31T18:47:32;6.20;;;2.95;;
31906;SDS011;18455;50.858;13.662;2023-07-31T18:52:32;5.57;;;3.13;;
31906;SDS011;18455;50.858;13.662;2023-07-31T18:57:33;5.55;;;2.70;;
31906;SDS011;18455;50.858;13.662;2023-07-31T19:02:33;5.55;;;3.10;;
31906;SDS011;18455;50.858;13.662;2023-07-31T19:07:33;5.80;;;2.80;;
31906;SDS011;18455;50.858;13.662;2023-07-31T19:12:34;7.32;;;2.95;;
31906;SDS011;18455;50.858;13.662;2023-07-31T19:17:34;7.18;;;3.05;;
31906;SDS011;18455;50.858;13.662;2023-07-31T19:22:36;7.97;;;2.83;;
31906;SDS011;18455;50.858;13.662;2023-07-31T19:27:36;4.55;;;2.80;;
31906;SDS011;18455;50.858;13.662;2023-07-31T19:32:37;7.43;;;2.70;;
31906;SDS011;18455;50.858;13.662;2023-07-31T19:37:37;5.53;;;3.22;;
31906;SDS011;18455;50.858;13.662;2023-07-31T19:42:37;8.07;;;3.20;;
31906;SDS011;18455;50.858;13.662;2023-07-31T19:47:38;7.10;;;3.22;;
31906;SDS011;18455;50.858;13.662;2023-07-31T19:52:38;6.05;;;2.97;;
31906;SDS011;18455;50.858;13.662;2023-07-31T19:57:39;8.80;;;3.55;;
31906;SDS011;18455;50.858;13.662;2023-07-31T20:02:40;5.97;;;2.50;;
31906;SDS011;18455;50.858;13.662;2023-07-31T20:07:40;7.78;;;3.00;;
31906;SDS011;18455;50.858;13.662;2023-07-31T20:12:40;5.50;;;2.88;;
31906;SDS011;18455;50.858;13.662;2023-07-31T20:17:41;5.30;;;2.90;;
31906;SDS011;18455;50.858;13.662;2023-07-31T20:22:41;4.35;;;2.60;;
31906;SDS011;18455;50.858;13.662;2023-07-31T20:27:42;7.13;;;3.60;;
31906;SDS011;18455;50.858;13.662;2023-07-31T20:32:43;7.30;;;3.03;;
31906;SDS011;18455;50.858;13.662;2023-07-31T20:37:44;5.70;;;3.72;;
31906;SDS011;18455;50.858;13.662;2023-07-31T20:42:54;9.35;;;3.30;;
31906;SDS011;18455;50.858;13.662;2023-07-31T20:47:58;6.22;;;2.72;;
31906;SDS011;18455;50.858;13.662;2023-07-31T20:52:59;7.30;;;3.30;;
31906;SDS011;18455;50.858;13.662;2023-07-31T20:57:59;6.47;;;2.85;;
31906;SDS011;18455;50.858;13.662;2023-07-31T21:03:03;4.65;;;3.00;;
31906;SDS011;18455;50.858;13.662;2023-07-31T21:08:03;7.97;;;3.00;;
31906;SDS011;18455;50.858;13.662;2023-07-31T21:13:04;7.57;;;2.70;;
31906;SDS011;18455;50.858;13.662;2023-07-31T21:18:04;9.90;;;3.28;;
31906;SDS011;18455;50.858;13.662;2023-07-31T21:23:04;7.30;;;3.00;;
31906;SDS011;18455;50.858;13.662;2023-07-31T21:28:06;5.10;;;2.63;;
31906;SDS011;18455;50.858;13.662;2023-07-31T21:33:07;6.10;;;2.97;;
31906;SDS011;18455;50.858;13.662;2023-07-31T21:38:07;6.05;;;3.28;;
31906;SDS011;18455;50.858;13.662;2023-07-31T21:43:08;5.82;;;2.67;;
31906;SDS011;18455;50.858;13.662;2023-07-31T21:48:08;8.40;;;3.05;;
31906;SDS011;18455;50.858;13.662;2023-07-31T21:53:09;5.15;;;2.90;;
31906;SDS011;18455;50.858;13.662;2023-07-31T21:58:09;6.35;;;3.25;;
31906;SDS011;18455;50.858;13.662;2023-07-31T22:03:10;6.68;;;2.75;;
31906;SDS011;18455;50.858;13.662;2023-07-31T22:08:10;6.38;;;3.10;;
31906;SDS011;18455;50.858;13.662;2023-07-31T22:13:10;6.78;;;2.95;;
31906;SDS011;18455;50.858;13.662;2023-07-31T22:18:11;6.25;;;2.92;;
31906;SDS011;18455;50.858;13.662;2023-07-31T22:23:11;6.13;;;3.03;;
31906;SDS011;18455;50.858;13.662;2023-07-31T22:28:11;7.63;;;3.10;;
31906;SDS011;18455;50.858;13.662;2023-07-31T22:33:12;6.00;;;2.78;;
31906;SDS011;18455;50.858;13.662;2023-07-31T22:38:12;6.70;;;2.75;;
31906;SDS011;18455;50.858;13.662;2023-07-31T22:43:13;8.13;;;3.10;;
31906;SDS011;18455;50.858;13.662;2023-07-31T22:48:13;9.63;;;3.08;;
31906;SDS011;18455;50.858;13.662;2023-07-31T22:58:17;5.80;;;2.95;;
31906;SDS011;18455;50.858;13.662;2023-07-31T23:03:17;4.55;;;2.95;;
31906;SDS011;18455;50.858;13.662;2023-07-31T23:08:17;4.95;;;2.80;;
31906;SDS011;18455;50.858;13.662;2023-07-31T23:13:18;5.85;;;2.55;;
31906;SDS011;18455;50.858;13.662;2023-07-31T23:18:19;4.72;;;3.13;;
31906;SDS011;18455;50.858;13.662;2023-07-31T23:23:19;6.63;;;2.90;;
31906;SDS011;18455;50.858;13.662;2023-07-31T23:28:19;7.03;;;3.13;;
31906;SDS011;18455;50.858;13.662;2023-07-31T23:33:20;6.30;;;3.05;;
31906;SDS011;18455;50.858;13.662;2023-07-31T23:38:20;7.40;;;3.28;;
31906;SDS011;18455;50.858;13.662;2023-07-31T23:43:20;8.65;;;3.42;;
31906;SDS011;18455;50.858;13.662;2023-07-31T23:48:21;6.90;;;3.42;;
31906;SDS011;18455;50.858;13.662;2023-07-31T23:53:21;9.27;;;3.03;;
31906;SDS011;18455;50.858;13.662;2023-07-31T23:58:22;4.55;;;2.83;;
